createdAt,value
2023-03-17T00:00:18.912Z,991.92
2023-03-17T00:01:18.898Z,991.92
2023-03-17T00:02:18.894Z,991.93
2023-03-17T00:03:18.851Z,991.90
2023-03-17T00:04:18.832Z,991.95
2023-03-17T00:05:18.784Z,991.90
2023-03-17T00:06:18.770Z,991.89
2023-03-17T00:07:18.734Z,991.91
2023-03-17T00:08:18.711Z,991.82
2023-03-17T00:09:18.696Z,991.87
2023-03-17T00:10:18.663Z,991.84
2023-03-17T00:11:18.633Z,991.85
2023-03-17T00:12:18.616Z,991.88
2023-03-17T00:13:18.584Z,991.86
2023-03-17T00:14:18.561Z,991.84
2023-03-17T00:15:18.538Z,991.84
2023-03-17T00:16:18.596Z,991.83
2023-03-17T00:17:18.481Z,991.72
2023-03-17T00:18:18.462Z,991.68
2023-03-17T00:19:18.430Z,991.67
2023-03-17T00:20:18.414Z,991.71
2023-03-17T00:21:18.378Z,991.63
2023-03-17T00:22:18.362Z,991.66
2023-03-17T00:23:18.334Z,991.66
2023-03-17T00:24:18.315Z,991.65
2023-03-17T00:25:18.276Z,991.61
2023-03-17T00:26:18.260Z,991.62
2023-03-17T00:27:18.230Z,991.64
2023-03-17T00:28:18.220Z,991.60
2023-03-17T00:29:18.178Z,991.61
2023-03-17T00:30:18.161Z,991.59
2023-03-17T00:31:18.201Z,991.60
2023-03-17T00:32:18.116Z,991.59
2023-03-17T00:33:18.105Z,991.62
2023-03-17T00:34:18.056Z,991.64
2023-03-17T00:35:18.031Z,991.62
2023-03-17T00:36:18.021Z,991.59
2023-03-17T00:37:17.976Z,991.58
2023-03-17T00:38:17.960Z,991.62
2023-03-17T00:39:17.928Z,991.59
2023-03-17T00:40:17.914Z,991.53
2023-03-17T00:41:17.878Z,991.51
2023-03-17T00:42:17.855Z,991.53
2023-03-17T00:43:17.830Z,991.57
2023-03-17T00:44:17.825Z,991.57
2023-03-17T00:45:17.779Z,991.57
2023-03-17T00:46:17.798Z,991.52
2023-03-17T00:47:17.731Z,991.50
2023-03-17T00:48:17.727Z,991.49
2023-03-17T00:49:17.678Z,991.49
2023-03-17T00:50:17.651Z,991.45
2023-03-17T00:51:17.628Z,991.43
2023-03-17T00:52:17.608Z,991.40
2023-03-17T00:53:17.575Z,991.41
2023-03-17T00:54:17.556Z,991.37
2023-03-17T00:55:17.526Z,991.34
2023-03-17T00:56:17.515Z,991.30
2023-03-17T00:57:17.485Z,991.29
2023-03-17T00:58:17.451Z,991.26
2023-03-17T00:59:19.298Z,991.24
2023-03-17T01:00:17.407Z,991.24
2023-03-17T01:01:17.389Z,991.27
2023-03-17T01:02:17.380Z,991.18
2023-03-17T01:03:17.326Z,991.18
2023-03-17T01:04:17.310Z,991.13
2023-03-17T01:05:17.303Z,991.16
2023-03-17T01:06:17.251Z,991.15
2023-03-17T01:07:17.234Z,991.17
2023-03-17T01:08:17.204Z,991.14
2023-03-17T01:09:17.180Z,991.15
2023-03-17T01:10:17.151Z,991.11
2023-03-17T01:11:17.126Z,991.05
2023-03-17T01:12:17.102Z,991.10
2023-03-17T01:13:17.078Z,991.03
2023-03-17T01:14:17.060Z,991.05
2023-03-17T01:15:17.048Z,991.03
2023-03-17T01:16:17.162Z,991.06
2023-03-17T01:17:16.978Z,991.04
2023-03-17T01:18:17.031Z,991.03
2023-03-17T01:19:17.126Z,991.02
2023-03-17T01:20:16.912Z,991.05
2023-03-17T01:21:16.889Z,991.04
2023-03-17T01:22:16.862Z,991.00
2023-03-17T01:23:16.863Z,991.02
2023-03-17T01:24:16.799Z,990.99
2023-03-17T01:25:16.776Z,991.00
2023-03-17T01:26:16.749Z,990.94
2023-03-17T01:27:16.718Z,990.89
2023-03-17T01:28:16.717Z,990.93
2023-03-17T01:29:16.674Z,990.87
2023-03-17T01:30:16.660Z,990.89
2023-03-17T01:31:16.642Z,990.86
2023-03-17T01:32:16.611Z,990.90
2023-03-17T01:33:16.572Z,990.86
2023-03-17T01:34:16.630Z,990.89
2023-03-17T01:35:16.552Z,990.90
2023-03-17T01:36:16.504Z,990.95
2023-03-17T01:37:16.479Z,990.92
2023-03-17T01:38:16.463Z,990.89
2023-03-17T01:39:16.429Z,990.90
2023-03-17T01:40:16.409Z,990.86
2023-03-17T01:41:16.372Z,990.92
2023-03-17T01:42:16.349Z,990.90
2023-03-17T01:43:16.329Z,990.90
2023-03-17T01:44:16.300Z,990.92
2023-03-17T01:45:16.284Z,990.92
2023-03-17T01:46:16.269Z,990.89
2023-03-17T01:47:16.248Z,990.90
2023-03-17T01:48:16.207Z,990.90
2023-03-17T01:49:16.174Z,990.92
2023-03-17T01:50:16.148Z,990.91
2023-03-17T01:51:16.125Z,990.92
2023-03-17T01:52:16.117Z,990.91
2023-03-17T01:53:16.069Z,990.94
2023-03-17T01:54:16.049Z,990.92
2023-03-17T01:55:16.022Z,990.96
2023-03-17T01:56:15.997Z,990.94
2023-03-17T01:57:15.972Z,990.96
2023-03-17T01:58:15.965Z,990.96
2023-03-17T01:59:15.924Z,990.92
2023-03-17T02:00:15.899Z,990.90
2023-03-17T02:01:15.909Z,990.89
2023-03-17T02:02:15.850Z,990.85
2023-03-17T02:03:15.826Z,990.88
2023-03-17T02:04:15.826Z,990.85
2023-03-17T02:05:15.785Z,990.88
2023-03-17T02:06:15.753Z,990.84
2023-03-17T02:07:15.718Z,990.84
2023-03-17T02:08:15.698Z,990.85
2023-03-17T02:09:15.675Z,990.81
2023-03-17T02:10:15.646Z,990.78
2023-03-17T02:11:15.618Z,990.76
2023-03-17T02:12:15.630Z,990.72
2023-03-17T02:13:15.577Z,990.76
2023-03-17T02:14:15.546Z,990.73
2023-03-17T02:15:15.543Z,990.68
2023-03-17T02:16:15.529Z,990.65
2023-03-17T02:17:15.477Z,990.65
2023-03-17T02:18:15.458Z,990.66
2023-03-17T02:19:15.454Z,990.67
2023-03-17T02:20:15.400Z,990.68
2023-03-17T02:21:15.367Z,990.64
2023-03-17T02:22:15.349Z,990.59
2023-03-17T02:23:15.318Z,990.62
2023-03-17T02:24:15.298Z,990.58
2023-03-17T02:25:15.277Z,990.61
2023-03-17T02:26:15.251Z,990.61
2023-03-17T02:27:15.222Z,990.64
2023-03-17T02:28:15.215Z,990.62
2023-03-17T02:29:15.166Z,990.61
2023-03-17T02:30:15.164Z,990.65
2023-03-17T02:31:15.154Z,990.64
2023-03-17T02:32:15.096Z,990.64
2023-03-17T02:33:15.072Z,990.65
2023-03-17T02:34:15.047Z,990.67
2023-03-17T02:35:15.046Z,990.65
2023-03-17T02:36:15.085Z,990.67
2023-03-17T02:37:14.963Z,990.65
2023-03-17T02:38:14.950Z,990.64
2023-03-17T02:39:14.923Z,990.68
2023-03-17T02:40:14.917Z,990.64
2023-03-17T02:41:14.901Z,990.70
2023-03-17T02:42:14.850Z,990.72
2023-03-17T02:43:14.820Z,990.65
2023-03-17T02:44:14.819Z,990.64
2023-03-17T02:45:14.771Z,990.68
2023-03-17T02:46:14.782Z,990.71
2023-03-17T02:47:14.721Z,990.76
2023-03-17T02:48:14.696Z,990.80
2023-03-17T02:49:14.673Z,990.81
2023-03-17T02:50:14.663Z,990.83
2023-03-17T02:51:14.616Z,990.82
2023-03-17T02:52:14.613Z,990.80
2023-03-17T02:53:14.594Z,990.79
2023-03-17T02:54:14.550Z,990.75
2023-03-17T02:55:14.516Z,990.69
2023-03-17T02:56:14.496Z,990.69
2023-03-17T02:57:14.468Z,990.72
2023-03-17T02:58:14.447Z,990.72
2023-03-17T02:59:14.432Z,990.73
2023-03-17T03:00:14.438Z,990.73
2023-03-17T03:01:14.412Z,990.74
2023-03-17T03:02:14.407Z,990.79
2023-03-17T03:03:14.314Z,990.78
2023-03-17T03:04:14.298Z,990.80
2023-03-17T03:05:14.276Z,990.78
2023-03-17T03:06:14.252Z,990.73
2023-03-17T03:07:14.224Z,990.73
2023-03-17T03:08:14.250Z,990.64
2023-03-17T03:09:14.173Z,990.64
2023-03-17T03:10:14.144Z,990.62
2023-03-17T03:11:14.131Z,990.62
2023-03-17T03:12:14.091Z,990.63
2023-03-17T03:13:14.102Z,990.57
2023-03-17T03:14:14.042Z,990.55
2023-03-17T03:15:14.016Z,990.57
2023-03-17T03:16:14.015Z,990.53
2023-03-17T03:17:13.971Z,990.46
2023-03-17T03:18:13.958Z,990.44
2023-03-17T03:19:13.927Z,990.38
2023-03-17T03:20:13.888Z,990.37
2023-03-17T03:21:13.868Z,990.31
2023-03-17T03:22:13.832Z,990.27
2023-03-17T03:23:13.817Z,990.29
2023-03-17T03:24:13.804Z,990.28
2023-03-17T03:25:13.765Z,990.30
2023-03-17T03:26:13.736Z,990.30
2023-03-17T03:27:13.722Z,990.38
2023-03-17T03:28:13.692Z,990.33
2023-03-17T03:29:13.676Z,990.36
2023-03-17T03:30:13.636Z,990.31
2023-03-17T03:31:13.700Z,990.29
2023-03-17T03:32:13.588Z,990.31
2023-03-17T03:33:13.564Z,990.36
2023-03-17T03:34:13.532Z,990.35
2023-03-17T03:35:13.509Z,990.38
2023-03-17T03:36:13.487Z,990.38
2023-03-17T03:37:13.461Z,990.39
2023-03-17T03:38:13.444Z,990.41
2023-03-17T03:39:14.530Z,990.37
2023-03-17T03:40:13.390Z,990.37
2023-03-17T03:41:13.356Z,990.36
2023-03-17T03:42:13.338Z,990.30
2023-03-17T03:43:22.440Z,990.31
2023-03-17T03:44:13.277Z,990.33
2023-03-17T03:45:13.268Z,990.35
2023-03-17T03:46:13.239Z,990.31
2023-03-17T03:47:13.200Z,990.32
2023-03-17T03:48:13.171Z,990.33
2023-03-17T03:49:13.156Z,990.37
2023-03-17T03:50:13.158Z,990.34
2023-03-17T03:51:13.106Z,990.28
2023-03-17T03:52:13.076Z,990.24
2023-03-17T03:53:13.077Z,990.25
2023-03-17T03:54:13.043Z,990.29
2023-03-17T03:55:13.007Z,990.28
2023-03-17T03:56:12.998Z,990.28
2023-03-17T03:57:12.949Z,990.29
2023-03-17T03:58:12.922Z,990.30
2023-03-17T03:59:12.901Z,990.36
2023-03-17T04:00:12.861Z,990.28
2023-03-17T04:01:12.844Z,990.23
2023-03-17T04:02:12.813Z,990.21
2023-03-17T04:03:12.820Z,990.16
2023-03-17T04:04:12.780Z,990.14
2023-03-17T04:05:12.754Z,990.11
2023-03-17T04:06:12.713Z,990.13
2023-03-17T04:07:12.705Z,990.10
2023-03-17T04:08:12.700Z,990.16
2023-03-17T04:09:12.680Z,990.15
2023-03-17T04:10:12.613Z,990.13
2023-03-17T04:11:12.598Z,990.11
2023-03-17T04:12:12.565Z,990.16
2023-03-17T04:13:12.540Z,990.19
2023-03-17T04:14:12.508Z,990.25
2023-03-17T04:15:12.485Z,990.20
2023-03-17T04:16:12.517Z,990.18
2023-03-17T04:17:12.437Z,990.18
2023-03-17T04:18:12.406Z,990.20
2023-03-17T04:19:12.521Z,990.16
2023-03-17T04:20:12.358Z,990.17
2023-03-17T04:21:12.333Z,990.20
2023-03-17T04:22:12.303Z,990.12
2023-03-17T04:23:12.283Z,990.15
2023-03-17T04:24:12.264Z,990.14
2023-03-17T04:25:12.266Z,990.17
2023-03-17T04:26:12.201Z,990.21
2023-03-17T04:27:12.186Z,990.18
2023-03-17T04:28:12.209Z,990.13
2023-03-17T04:29:12.132Z,990.23
2023-03-17T04:30:12.148Z,990.26
2023-03-17T04:31:12.204Z,990.25
2023-03-17T04:32:12.082Z,990.21
2023-03-17T04:33:12.059Z,990.17
2023-03-17T04:34:11.997Z,990.15
2023-03-17T04:35:11.978Z,990.16
2023-03-17T04:36:11.973Z,990.20
2023-03-17T04:37:11.930Z,990.23
2023-03-17T04:38:11.907Z,990.25
2023-03-17T04:39:11.876Z,990.17
2023-03-17T04:40:11.848Z,990.21
2023-03-17T04:41:11.828Z,990.25
2023-03-17T04:42:11.792Z,990.21
2023-03-17T04:43:11.789Z,990.21
2023-03-17T04:44:11.747Z,990.23
2023-03-17T04:45:11.733Z,990.23
2023-03-17T04:46:11.771Z,990.21
2023-03-17T04:47:11.690Z,990.13
2023-03-17T04:48:11.645Z,990.16
2023-03-17T04:49:11.623Z,990.19
2023-03-17T04:50:11.600Z,990.13
2023-03-17T04:51:11.952Z,990.20
2023-03-17T04:52:11.553Z,990.13
2023-03-17T04:53:11.526Z,990.15
2023-03-17T04:54:11.492Z,990.15
2023-03-17T04:55:11.473Z,990.12
2023-03-17T04:56:11.444Z,990.09
2023-03-17T04:57:11.427Z,990.06
2023-03-17T04:58:15.452Z,990.10
2023-03-17T04:59:11.372Z,990.06
2023-03-17T05:00:11.343Z,990.06
2023-03-17T05:01:11.370Z,990.08
2023-03-17T05:02:11.308Z,990.07
2023-03-17T05:03:25.797Z,990.10
2023-03-17T05:04:16.707Z,990.08
2023-03-17T05:05:11.220Z,990.11
2023-03-17T05:06:11.195Z,990.08
2023-03-17T05:07:11.166Z,990.10
2023-03-17T05:08:11.144Z,990.11
2023-03-17T05:09:11.118Z,990.09
2023-03-17T05:10:11.086Z,990.09
2023-03-17T05:11:11.072Z,990.04
2023-03-17T05:12:11.049Z,990.05
2023-03-17T05:13:11.015Z,990.04
2023-03-17T05:14:10.981Z,990.08
2023-03-17T05:15:10.958Z,990.02
2023-03-17T05:16:11.059Z,990.04
2023-03-17T05:17:10.910Z,990.04
2023-03-17T05:18:10.878Z,990.09
2023-03-17T05:19:10.859Z,990.09
2023-03-17T05:20:10.855Z,990.12
2023-03-17T05:21:10.822Z,990.13
2023-03-17T05:22:10.774Z,990.12
2023-03-17T05:23:10.763Z,990.14
2023-03-17T05:24:10.729Z,990.10
2023-03-17T05:25:10.711Z,990.12
2023-03-17T05:26:10.678Z,990.09
2023-03-17T05:27:10.654Z,990.09
2023-03-17T05:28:10.625Z,990.11
2023-03-17T05:29:10.614Z,990.17
2023-03-17T05:30:10.584Z,990.12
2023-03-17T05:31:11.199Z,990.16
2023-03-17T05:32:10.532Z,990.16
2023-03-17T05:33:10.510Z,990.18
2023-03-17T05:34:10.476Z,990.17
2023-03-17T05:35:10.449Z,990.16
2023-03-17T05:36:10.426Z,990.15
2023-03-17T05:37:10.404Z,990.15
2023-03-17T05:38:10.370Z,990.24
2023-03-17T05:39:10.350Z,990.28
2023-03-17T05:40:10.317Z,990.35
2023-03-17T05:41:10.297Z,990.35
2023-03-17T05:42:10.290Z,990.43
2023-03-17T05:43:10.254Z,990.44
2023-03-17T05:44:10.238Z,990.52
2023-03-17T05:45:10.189Z,990.52
2023-03-17T05:46:10.212Z,990.56
2023-03-17T05:47:10.141Z,990.60
2023-03-17T05:48:10.123Z,990.58
2023-03-17T05:49:10.103Z,990.59
2023-03-17T05:50:10.058Z,990.60
2023-03-17T05:51:10.046Z,990.57
2023-03-17T05:52:10.015Z,990.50
2023-03-17T05:53:09.997Z,990.51
2023-03-17T05:54:09.964Z,990.47
2023-03-17T05:55:09.940Z,990.48
2023-03-17T05:56:09.923Z,990.44
2023-03-17T05:57:09.898Z,990.52
2023-03-17T05:58:09.885Z,990.54
2023-03-17T05:59:09.865Z,990.59
2023-03-17T06:00:12.373Z,990.59
2023-03-17T06:01:09.795Z,990.58
2023-03-17T06:02:09.853Z,990.58
2023-03-17T06:03:09.753Z,990.54
2023-03-17T06:04:09.714Z,990.57
2023-03-17T06:05:09.710Z,990.60
2023-03-17T06:06:09.652Z,990.62
2023-03-17T06:07:09.636Z,990.57
2023-03-17T06:08:09.604Z,990.58
2023-03-17T06:09:09.582Z,990.60
2023-03-17T06:10:09.561Z,990.61
2023-03-17T06:11:09.541Z,990.62
2023-03-17T06:12:09.516Z,990.63
2023-03-17T06:13:09.487Z,990.63
2023-03-17T06:14:09.446Z,990.63
2023-03-17T06:15:09.432Z,990.62
2023-03-17T06:16:09.559Z,990.64
2023-03-17T06:17:09.375Z,990.60
2023-03-17T06:18:09.371Z,990.57
2023-03-17T06:19:09.339Z,990.58
2023-03-17T06:20:09.324Z,990.56
2023-03-17T06:21:09.287Z,990.62
2023-03-17T06:22:09.269Z,990.61
2023-03-17T06:23:09.226Z,990.62
2023-03-17T06:24:09.193Z,990.63
2023-03-17T06:25:09.172Z,990.61
2023-03-17T06:26:09.143Z,990.61
2023-03-17T06:27:09.216Z,990.59
2023-03-17T06:28:09.092Z,990.54
2023-03-17T06:29:09.085Z,990.53
2023-03-17T06:30:09.038Z,990.47
2023-03-17T06:31:09.083Z,990.49
2023-03-17T06:32:19.727Z,990.47
2023-03-17T06:33:09.226Z,990.46
2023-03-17T06:34:08.943Z,990.45
2023-03-17T06:35:08.912Z,990.48
2023-03-17T06:36:08.991Z,990.47
2023-03-17T06:37:08.862Z,990.50
2023-03-17T06:38:08.832Z,990.50
2023-03-17T06:39:08.811Z,990.50
2023-03-17T06:40:08.784Z,990.49
2023-03-17T06:41:08.760Z,990.50
2023-03-17T06:42:08.751Z,990.50
2023-03-17T06:43:08.712Z,990.51
2023-03-17T06:44:08.680Z,990.47
2023-03-17T06:45:08.660Z,990.47
2023-03-17T06:46:08.729Z,990.51
2023-03-17T06:47:08.614Z,990.55
2023-03-17T06:48:08.587Z,990.57
2023-03-17T06:49:08.555Z,990.55
2023-03-17T06:50:08.518Z,990.56
2023-03-17T06:51:08.503Z,990.60
2023-03-17T06:52:08.479Z,990.61
2023-03-17T06:53:08.472Z,990.60
2023-03-17T06:54:08.424Z,990.57
2023-03-17T06:55:08.407Z,990.60
2023-03-17T06:56:17.230Z,990.57
2023-03-17T06:57:08.348Z,990.58
2023-03-17T06:58:08.326Z,990.58
2023-03-17T06:59:08.297Z,990.55
2023-03-17T07:00:08.275Z,990.57
2023-03-17T07:01:08.253Z,990.53
2023-03-17T07:02:08.316Z,990.55
2023-03-17T07:03:08.213Z,990.58
2023-03-17T07:04:08.210Z,990.65
2023-03-17T07:05:08.151Z,990.64
2023-03-17T07:06:08.165Z,990.66
2023-03-17T07:07:08.102Z,990.66
2023-03-17T07:08:08.115Z,990.66
2023-03-17T07:09:08.058Z,990.63
2023-03-17T07:10:08.019Z,990.63
2023-03-17T07:11:08.011Z,990.65
2023-03-17T07:12:07.980Z,990.65
2023-03-17T07:13:08.044Z,990.70
2023-03-17T07:14:07.957Z,990.69
2023-03-17T07:15:07.904Z,990.68
2023-03-17T07:16:08.012Z,990.72
2023-03-17T07:17:07.873Z,990.74
2023-03-17T07:18:07.818Z,990.79
2023-03-17T07:19:07.821Z,990.79
2023-03-17T07:20:07.784Z,990.83
2023-03-17T07:21:07.750Z,990.85
2023-03-17T07:22:07.721Z,990.85
2023-03-17T07:23:07.705Z,990.84
2023-03-17T07:24:07.681Z,990.80
2023-03-17T07:25:07.698Z,990.74
2023-03-17T07:26:07.624Z,990.73
2023-03-17T07:27:07.615Z,990.71
2023-03-17T07:28:07.578Z,990.71
2023-03-17T07:29:07.551Z,990.73
2023-03-17T07:30:07.543Z,990.72
2023-03-17T07:31:07.524Z,990.71
2023-03-17T07:32:07.475Z,990.69
2023-03-17T07:33:07.486Z,990.75
2023-03-17T07:34:07.433Z,990.74
2023-03-17T07:35:07.439Z,990.73
2023-03-17T07:36:07.447Z,990.72
2023-03-17T07:37:07.379Z,990.73
2023-03-17T07:38:07.353Z,990.69
2023-03-17T07:39:08.067Z,990.75
2023-03-17T07:40:07.406Z,990.76
2023-03-17T07:41:07.254Z,990.78
2023-03-17T07:42:07.253Z,990.72
2023-03-17T07:43:07.202Z,990.75
2023-03-17T07:44:07.224Z,990.74
2023-03-17T07:45:07.158Z,990.77
2023-03-17T07:46:07.247Z,990.79
2023-03-17T07:47:07.114Z,990.74
2023-03-17T07:48:07.127Z,990.72
2023-03-17T07:49:07.091Z,990.76
2023-03-17T07:50:07.046Z,990.74
2023-03-17T07:51:07.046Z,990.69
2023-03-17T07:52:07.018Z,990.73
2023-03-17T07:53:06.969Z,990.77
2023-03-17T07:54:06.954Z,990.77
2023-03-17T07:55:06.925Z,990.80
2023-03-17T07:56:06.951Z,990.75
2023-03-17T07:57:06.911Z,990.77
2023-03-17T07:58:06.940Z,990.71
2023-03-17T07:59:06.864Z,990.73
2023-03-17T08:00:06.852Z,990.67
2023-03-17T08:01:06.823Z,990.68
2023-03-17T08:02:06.900Z,990.70
2023-03-17T08:03:10.798Z,990.69
2023-03-17T08:04:06.775Z,990.73
2023-03-17T08:05:06.704Z,990.72
2023-03-17T08:06:06.711Z,990.72
2023-03-17T08:07:06.665Z,990.72
2023-03-17T08:08:06.851Z,990.76
2023-03-17T08:09:06.635Z,990.76
2023-03-17T08:10:06.607Z,990.73
2023-03-17T08:11:06.572Z,990.74
2023-03-17T08:12:06.570Z,990.74
2023-03-17T08:13:06.542Z,990.78
2023-03-17T08:14:06.529Z,990.75
2023-03-17T08:15:06.494Z,990.74
2023-03-17T08:16:06.639Z,990.69
2023-03-17T08:17:06.589Z,990.67
2023-03-17T08:18:06.444Z,990.69
2023-03-17T08:19:06.411Z,990.67
2023-03-17T08:20:06.414Z,990.66
2023-03-17T08:21:06.383Z,990.65
2023-03-17T08:22:06.361Z,990.63
2023-03-17T08:23:06.410Z,990.61
2023-03-17T08:24:06.367Z,990.59
2023-03-17T08:25:06.372Z,990.58
2023-03-17T08:26:06.287Z,990.56
2023-03-17T08:27:06.271Z,990.58
2023-03-17T08:28:06.253Z,990.59
2023-03-17T08:29:06.283Z,990.61
2023-03-17T08:30:06.259Z,990.68
2023-03-17T08:31:06.352Z,990.66
2023-03-17T08:32:06.185Z,990.63
2023-03-17T08:33:06.249Z,990.63
2023-03-17T08:34:06.132Z,990.65
2023-03-17T08:35:06.379Z,990.70
2023-03-17T08:36:06.117Z,990.70
2023-03-17T08:37:06.110Z,990.69
2023-03-17T08:38:06.066Z,990.70
2023-03-17T08:39:06.041Z,990.74
2023-03-17T08:40:06.063Z,990.71
2023-03-17T08:41:06.015Z,990.73
2023-03-17T08:42:06.002Z,990.69
2023-03-17T08:43:05.982Z,990.71
2023-03-17T08:44:05.974Z,990.69
2023-03-17T08:45:05.938Z,990.65
2023-03-17T08:46:05.983Z,990.64
2023-03-17T08:47:05.902Z,990.65
2023-03-17T08:48:05.899Z,990.63
2023-03-17T08:49:05.882Z,990.64
2023-03-17T08:50:05.861Z,990.68
2023-03-17T08:51:05.836Z,990.70
2023-03-17T08:52:05.828Z,990.74
2023-03-17T08:53:05.804Z,990.67
2023-03-17T08:54:05.800Z,990.66
2023-03-17T08:55:05.777Z,990.71
2023-03-17T08:56:05.762Z,990.64
2023-03-17T08:57:05.745Z,990.64
2023-03-17T08:58:05.733Z,990.61
2023-03-17T08:59:05.708Z,990.59
2023-03-17T09:00:05.693Z,990.58
2023-03-17T09:01:05.714Z,990.55
2023-03-17T09:02:05.679Z,990.55
2023-03-17T09:03:05.640Z,990.53
2023-03-17T09:04:05.655Z,990.53
2023-03-17T09:05:05.606Z,990.51
2023-03-17T09:06:05.601Z,990.54
2023-03-17T09:07:07.673Z,990.50
2023-03-17T09:08:05.689Z,990.49
2023-03-17T09:09:05.542Z,990.50
2023-03-17T09:10:05.541Z,990.52
2023-03-17T09:11:05.528Z,990.56
2023-03-17T09:12:05.510Z,990.52
2023-03-17T09:13:05.522Z,990.53
2023-03-17T09:14:05.491Z,990.49
2023-03-17T09:15:05.539Z,990.45
2023-03-17T09:16:05.542Z,990.39
2023-03-17T09:17:06.049Z,990.36
2023-03-17T09:18:05.421Z,990.40
2023-03-17T09:19:05.396Z,990.38
2023-03-17T09:20:05.416Z,990.45
2023-03-17T09:21:05.679Z,990.53
2023-03-17T09:22:05.343Z,990.56
2023-03-17T09:23:05.326Z,990.56
2023-03-17T09:24:05.317Z,990.58
2023-03-17T09:25:05.300Z,990.51
2023-03-17T09:26:05.368Z,990.49
2023-03-17T09:27:05.294Z,990.45
2023-03-17T09:28:05.294Z,990.44
2023-03-17T09:29:05.235Z,990.42
2023-03-17T09:30:05.222Z,990.46
2023-03-17T09:31:05.337Z,990.44
2023-03-17T09:32:05.207Z,990.44
2023-03-17T09:33:05.249Z,990.48
2023-03-17T09:34:05.172Z,990.44
2023-03-17T09:35:05.138Z,990.41
2023-03-17T09:36:05.203Z,990.36
2023-03-17T09:37:05.262Z,990.35
2023-03-17T09:38:05.103Z,990.35
2023-03-17T09:39:05.103Z,990.45
2023-03-17T09:40:05.074Z,990.44
2023-03-17T09:41:05.072Z,990.46
2023-03-17T09:42:05.031Z,990.47
2023-03-17T09:43:05.026Z,990.41
2023-03-17T09:44:05.037Z,990.40
2023-03-17T09:45:05.027Z,990.35
2023-03-17T09:46:05.002Z,990.29
2023-03-17T09:47:04.960Z,990.28
2023-03-17T09:48:04.960Z,990.29
2023-03-17T09:49:04.929Z,990.27
2023-03-17T09:50:04.909Z,990.24
2023-03-17T09:51:05.001Z,990.26
2023-03-17T09:52:04.893Z,990.31
2023-03-17T09:53:04.880Z,990.27
2023-03-17T09:54:04.831Z,990.31
2023-03-17T09:55:04.890Z,990.31
2023-03-17T09:56:04.798Z,990.33
2023-03-17T09:57:04.781Z,990.33
2023-03-17T09:58:04.773Z,990.34
2023-03-17T09:59:04.761Z,990.32
2023-03-17T10:00:04.773Z,990.35
2023-03-17T10:01:04.752Z,990.28
2023-03-17T10:02:04.818Z,990.28
2023-03-17T10:03:04.678Z,990.27
2023-03-17T10:04:04.671Z,990.27
2023-03-17T10:05:04.665Z,990.29
2023-03-17T10:06:04.640Z,990.30
2023-03-17T10:07:04.675Z,990.28
2023-03-17T10:08:05.437Z,990.23
2023-03-17T10:09:04.580Z,990.27
2023-03-17T10:10:04.601Z,990.22
2023-03-17T10:11:04.541Z,990.19
2023-03-17T10:12:04.546Z,990.21
2023-03-17T10:13:04.523Z,990.15
2023-03-17T10:14:04.533Z,990.16
2023-03-17T10:15:04.488Z,990.18
2023-03-17T10:16:04.533Z,990.16
2023-03-17T10:17:04.462Z,990.18
2023-03-17T10:18:04.434Z,990.09
2023-03-17T10:19:04.414Z,990.12
2023-03-17T10:20:04.446Z,990.13
2023-03-17T10:21:04.374Z,990.09
2023-03-17T10:22:04.369Z,990.11
2023-03-17T10:23:04.345Z,990.11
2023-03-17T10:24:04.339Z,990.13
2023-03-17T10:25:04.395Z,990.11
2023-03-17T10:26:04.312Z,990.13
2023-03-17T10:27:04.287Z,990.07
2023-03-17T10:28:05.913Z,990.08
2023-03-17T10:29:04.320Z,990.04
2023-03-17T10:30:04.259Z,990.09
2023-03-17T10:31:04.544Z,990.08
2023-03-17T10:32:04.501Z,990.09
2023-03-17T10:33:04.240Z,990.12
2023-03-17T10:34:04.191Z,990.09
2023-03-17T10:35:04.169Z,990.11
2023-03-17T10:36:04.212Z,990.10
2023-03-17T10:37:04.164Z,990.07
2023-03-17T10:38:14.061Z,990.07
2023-03-17T10:39:04.108Z,990.08
2023-03-17T10:40:04.107Z,990.14
2023-03-17T10:41:04.092Z,990.16
2023-03-17T10:42:04.078Z,990.12
2023-03-17T10:43:04.064Z,990.16
2023-03-17T10:44:04.049Z,990.15
2023-03-17T10:45:04.031Z,990.18
2023-03-17T10:46:04.244Z,990.15
2023-03-17T10:47:04.075Z,990.21
2023-03-17T10:48:03.998Z,990.17
2023-03-17T10:49:03.976Z,990.16
2023-03-17T10:50:03.968Z,990.16
2023-03-17T10:51:03.952Z,990.13
2023-03-17T10:52:03.947Z,990.15
2023-03-17T10:53:03.926Z,990.11
2023-03-17T10:54:03.948Z,990.11
2023-03-17T10:55:03.902Z,990.08
2023-03-17T10:56:03.888Z,990.09
2023-03-17T10:57:03.865Z,990.06
2023-03-17T10:58:03.873Z,990.07
2023-03-17T10:59:03.840Z,990.02
2023-03-17T11:00:03.833Z,990.00
2023-03-17T11:01:03.859Z,989.96
2023-03-17T11:02:03.819Z,989.93
2023-03-17T11:03:03.798Z,989.94
2023-03-17T11:04:03.913Z,989.94
2023-03-17T11:05:03.793Z,989.94
2023-03-17T11:06:03.761Z,989.91
2023-03-17T11:07:03.764Z,989.93
2023-03-17T11:08:03.749Z,989.97
2023-03-17T11:09:03.722Z,989.95
2023-03-17T11:10:03.722Z,989.96
2023-03-17T11:11:03.702Z,989.93
2023-03-17T11:12:03.701Z,989.94
2023-03-17T11:13:03.678Z,989.91
2023-03-17T11:14:03.672Z,989.92
2023-03-17T11:15:03.680Z,989.93
2023-03-17T11:16:03.693Z,989.94
2023-03-17T11:17:03.642Z,989.92
2023-03-17T11:18:03.631Z,989.91
2023-03-17T11:19:03.611Z,989.89
2023-03-17T11:20:03.602Z,989.89
2023-03-17T11:21:03.611Z,989.90
2023-03-17T11:22:03.573Z,989.90
2023-03-17T11:23:03.581Z,989.93
2023-03-17T11:24:03.563Z,989.89
2023-03-17T11:25:03.594Z,989.92
2023-03-17T11:26:03.535Z,989.89
2023-03-17T11:27:03.581Z,989.86
2023-03-17T11:28:03.511Z,989.87
2023-03-17T11:29:03.484Z,989.85
2023-03-17T11:30:03.478Z,989.90
2023-03-17T11:31:03.460Z,989.93
2023-03-17T11:32:03.494Z,989.90
2023-03-17T11:33:03.522Z,989.91
2023-03-17T11:34:03.427Z,989.91
2023-03-17T11:35:03.416Z,989.95
2023-03-17T11:36:03.523Z,989.94
2023-03-17T11:37:03.394Z,989.93
2023-03-17T11:38:03.368Z,989.84
2023-03-17T11:39:03.378Z,989.83
2023-03-17T11:40:03.353Z,989.83
2023-03-17T11:41:03.349Z,989.83
2023-03-17T11:42:03.329Z,989.81
2023-03-17T11:43:03.305Z,989.82
2023-03-17T11:44:03.307Z,989.80
2023-03-17T11:45:03.281Z,989.76
2023-03-17T11:46:03.275Z,989.77
2023-03-17T11:47:03.261Z,989.80
2023-03-17T11:48:03.279Z,989.80
2023-03-17T11:49:03.239Z,989.79
2023-03-17T11:50:03.230Z,989.78
2023-03-17T11:51:03.209Z,989.77
2023-03-17T11:52:03.200Z,989.78
2023-03-17T11:53:03.240Z,989.76
2023-03-17T11:54:03.177Z,989.76
2023-03-17T11:55:03.170Z,989.75
2023-03-17T11:56:03.152Z,989.75
2023-03-17T11:57:03.139Z,989.73
2023-03-17T11:58:03.113Z,989.73
2023-03-17T11:59:03.109Z,989.72
2023-03-17T12:00:03.097Z,989.73
2023-03-17T12:01:03.086Z,989.72
2023-03-17T12:02:03.073Z,989.69
2023-03-17T12:03:03.108Z,989.64
2023-03-17T12:04:03.205Z,989.64
2023-03-17T12:05:03.042Z,989.60
2023-03-17T12:06:03.032Z,989.58
2023-03-17T12:07:03.013Z,989.58
2023-03-17T12:08:03.010Z,989.61
2023-03-17T12:09:02.993Z,989.60
2023-03-17T12:10:02.986Z,989.63
2023-03-17T12:11:02.988Z,989.62
2023-03-17T12:12:02.968Z,989.57
2023-03-17T12:13:02.949Z,989.53
2023-03-17T12:14:02.938Z,989.50
2023-03-17T12:15:02.962Z,989.47
2023-03-17T12:16:02.980Z,989.48
2023-03-17T12:17:02.937Z,989.49
2023-03-17T12:18:02.902Z,989.48
2023-03-17T12:19:02.889Z,989.46
2023-03-17T12:20:02.884Z,989.47
2023-03-17T12:21:02.875Z,989.42
2023-03-17T12:22:02.857Z,989.41
2023-03-17T12:23:02.908Z,989.40
2023-03-17T12:24:02.842Z,989.41
2023-03-17T12:25:02.835Z,989.39
2023-03-17T12:26:02.833Z,989.42
2023-03-17T12:27:02.810Z,989.40
2023-03-17T12:28:02.792Z,989.41